createdAt,value
2018-01-07T00:02:16.997Z,37.37
2018-01-07T00:04:44.476Z,43.83
2018-01-07T00:07:11.951Z,39.70
2018-01-07T00:09:39.741Z,37.07
2018-01-07T00:12:07.199Z,37.60
2018-01-07T00:14:34.792Z,40.37
2018-01-07T00:17:02.256Z,41.77
2018-01-07T00:19:29.721Z,45.37
2018-01-07T00:21:57.186Z,44.50
2018-01-07T00:24:24.692Z,42.70
2018-01-07T00:26:52.262Z,41.50
2018-01-07T00:29:19.812Z,44.10
2018-01-07T00:31:48.401Z,43.13
2018-01-07T00:34:16.638Z,42.77
2018-01-07T00:36:44.269Z,41.57
2018-01-07T00:39:11.929Z,38.83
2018-01-07T00:41:39.488Z,45.30
2018-01-07T00:44:08.040Z,42.63
2018-01-07T00:46:35.521Z,42.40
2018-01-07T00:49:02.982Z,43.03
2018-01-07T00:51:30.438Z,45.77
2018-01-07T00:53:57.900Z,47.00
2018-01-07T00:56:25.447Z,42.87
2018-01-07T00:58:54.037Z,42.57
2018-01-07T01:01:21.535Z,46.80
2018-01-07T01:03:48.990Z,40.77
2018-01-07T01:06:16.468Z,42.00
2018-01-07T01:08:43.969Z,43.70
2018-01-07T01:11:11.439Z,45.97
2018-01-07T01:13:38.966Z,43.90
2018-01-07T01:16:06.426Z,41.23
2018-01-07T01:18:33.888Z,43.73
2018-01-07T01:21:01.351Z,47.10
2018-01-07T01:23:28.826Z,47.70
2018-01-07T01:25:56.300Z,42.03
2018-01-07T01:28:23.768Z,41.93
2018-01-07T01:30:51.236Z,43.60
2018-01-07T01:33:18.683Z,43.23
2018-01-07T01:35:46.159Z,49.00
2018-01-07T01:38:13.608Z,46.00
2018-01-07T01:40:41.156Z,50.17
2018-01-07T01:43:08.635Z,43.30
2018-01-07T01:45:36.095Z,45.07
2018-01-07T01:48:03.585Z,46.67
2018-01-07T01:50:31.039Z,42.97
2018-01-07T01:52:58.507Z,41.53
2018-01-07T01:55:25.983Z,47.53
2018-01-07T01:57:53.502Z,47.87
2018-01-07T02:00:20.995Z,45.10
2018-01-07T02:02:48.440Z,46.23
2018-01-07T02:05:16.767Z,45.20
2018-01-07T02:07:44.239Z,44.30
2018-01-07T02:10:11.704Z,44.33
2018-01-07T02:12:39.169Z,44.20
2018-01-07T02:15:06.641Z,50.57
2018-01-07T02:17:34.100Z,47.30
2018-01-07T02:20:01.572Z,50.57
2018-01-07T02:22:29.924Z,49.73
2018-01-07T02:24:57.389Z,49.83
2018-01-07T02:27:24.878Z,45.30
2018-01-07T02:29:53.748Z,50.60
2018-01-07T02:32:21.199Z,52.47
2018-01-07T02:34:48.697Z,48.63
2018-01-07T02:37:16.167Z,49.23
2018-01-07T02:39:43.651Z,50.20
2018-01-07T02:42:11.140Z,46.47
2018-01-07T02:44:38.601Z,54.40
2018-01-07T02:47:06.068Z,50.03
2018-01-07T02:49:33.592Z,53.60
2018-01-07T02:52:01.119Z,47.20
2018-01-07T02:54:28.573Z,48.23
2018-01-07T02:56:56.036Z,47.90
2018-01-07T02:59:23.484Z,49.33
2018-01-07T03:01:50.986Z,51.83
2018-01-07T03:04:18.479Z,42.77
2018-01-07T03:06:45.945Z,47.57
2018-01-07T03:09:13.429Z,50.13
2018-01-07T03:11:40.884Z,48.23
2018-01-07T03:14:08.331Z,43.03
2018-01-07T03:16:35.821Z,50.30
2018-01-07T03:19:03.289Z,48.73
2018-01-07T03:21:30.739Z,50.77
2018-01-07T03:23:58.254Z,48.40
2018-01-07T03:26:25.703Z,54.63
2018-01-07T03:28:53.171Z,55.23
2018-01-07T03:31:20.635Z,43.37
2018-01-07T03:33:48.099Z,48.33
2018-01-07T03:36:15.576Z,41.83
2018-01-07T03:38:43.723Z,46.50
2018-01-07T03:41:11.196Z,47.67
2018-01-07T03:43:38.672Z,45.30
2018-01-07T03:46:06.184Z,42.83
2018-01-07T03:48:33.680Z,44.13
2018-01-07T03:51:01.148Z,49.40
2018-01-07T03:53:28.621Z,44.20
2018-01-07T03:55:56.073Z,42.37
2018-01-07T03:58:24.480Z,48.53
2018-01-07T04:00:51.940Z,53.50
2018-01-07T04:03:19.398Z,46.30
2018-01-07T04:05:46.901Z,47.57
2018-01-07T04:08:14.349Z,45.33
2018-01-07T04:10:41.801Z,46.07
2018-01-07T04:13:09.259Z,44.43
2018-01-07T04:15:36.711Z,44.50
2018-01-07T04:18:04.171Z,45.97
2018-01-07T04:20:31.635Z,46.23
2018-01-07T04:22:59.100Z,47.53
2018-01-07T04:25:26.580Z,46.10
2018-01-07T04:27:54.039Z,45.10
2018-01-07T04:30:21.573Z,40.77
2018-01-07T04:32:49.057Z,43.87
2018-01-07T04:35:16.515Z,44.20
2018-01-07T04:37:44.004Z,44.10
2018-01-07T04:40:11.479Z,46.20
2018-01-07T04:42:38.928Z,40.20
2018-01-07T04:45:06.395Z,41.07
2018-01-07T04:47:33.856Z,41.60
2018-01-07T04:50:01.311Z,45.87
2018-01-07T04:52:28.806Z,42.10
2018-01-07T04:54:56.248Z,42.73
2018-01-07T04:57:23.701Z,44.80
2018-01-07T04:59:51.187Z,38.67
2018-01-07T05:02:19.260Z,40.73
2018-01-07T05:04:46.913Z,48.67
2018-01-07T05:07:14.379Z,44.60
2018-01-07T05:09:41.846Z,47.60
2018-01-07T05:12:09.340Z,51.43
2018-01-07T05:14:36.812Z,51.27
2018-01-07T05:17:04.260Z,50.63
2018-01-07T05:19:31.716Z,56.30
2018-01-07T05:21:59.202Z,60.67
2018-01-07T05:24:26.664Z,46.63
2018-01-07T05:26:54.104Z,49.60
2018-01-07T05:29:21.572Z,56.10
2018-01-07T05:31:49.023Z,57.37
2018-01-07T05:34:16.474Z,54.53
2018-01-07T05:36:43.950Z,53.23
2018-01-07T05:39:11.404Z,51.20
2018-01-07T05:41:38.868Z,52.00
2018-01-07T05:44:06.336Z,45.30
2018-01-07T05:46:33.860Z,48.67
2018-01-07T05:49:01.335Z,51.43
2018-01-07T05:51:28.837Z,54.33
2018-01-07T05:53:56.300Z,51.17
2018-01-07T05:56:23.864Z,50.80
2018-01-07T05:58:51.322Z,48.27
2018-01-07T06:01:18.808Z,50.10
2018-01-07T06:03:46.258Z,46.60
2018-01-07T06:06:13.720Z,50.03
2018-01-07T06:08:41.195Z,50.00
2018-01-07T06:11:08.670Z,62.13
2018-01-07T06:13:36.127Z,45.30
2018-01-07T06:16:03.573Z,50.27
2018-01-07T06:18:31.035Z,52.23
2018-01-07T06:20:58.492Z,53.03
2018-01-07T06:23:25.935Z,63.20
2018-01-07T06:25:53.399Z,70.53
2018-01-07T06:28:20.851Z,59.50
2018-01-07T06:30:48.327Z,57.30
2018-01-07T06:33:15.785Z,49.97
2018-01-07T06:35:43.243Z,57.00
2018-01-07T06:38:10.712Z,52.37
2018-01-07T06:40:38.157Z,56.00
2018-01-07T06:43:05.611Z,55.53
2018-01-07T06:45:33.085Z,52.80
2018-01-07T06:48:00.531Z,52.97
2018-01-07T06:50:27.983Z,50.77
2018-01-07T06:52:55.466Z,50.53
2018-01-07T06:55:22.927Z,51.43
2018-01-07T06:57:50.644Z,48.53
2018-01-07T07:00:18.113Z,43.83
2018-01-07T07:02:45.578Z,50.50
2018-01-07T07:05:13.068Z,48.57
2018-01-07T07:07:40.518Z,54.13
2018-01-07T07:10:08.000Z,45.60
2018-01-07T07:12:35.478Z,48.30
2018-01-07T07:15:02.967Z,48.03
2018-01-07T07:17:30.423Z,44.13
2018-01-07T07:19:57.879Z,42.53
2018-01-07T07:22:25.334Z,48.47
2018-01-07T07:24:52.865Z,52.10
2018-01-07T07:27:20.365Z,48.10
2018-01-07T07:29:47.819Z,48.93
2018-01-07T07:32:15.276Z,52.63
2018-01-07T07:34:42.751Z,53.30
2018-01-07T07:37:10.203Z,46.90
2018-01-07T07:39:37.655Z,55.33
2018-01-07T07:42:05.171Z,58.20
2018-01-07T07:44:32.627Z,53.50
2018-01-07T07:47:00.131Z,54.17
2018-01-07T07:49:27.600Z,49.50
2018-01-07T07:51:55.068Z,46.30
2018-01-07T07:54:22.549Z,49.27
2018-01-07T07:56:50.013Z,48.73
2018-01-07T07:59:17.491Z,46.90
2018-01-07T08:01:44.961Z,53.07
2018-01-07T08:04:12.423Z,50.97
2018-01-07T08:06:39.914Z,51.47
2018-01-07T08:09:07.375Z,49.97
2018-01-07T08:11:34.835Z,55.80
2018-01-07T08:14:02.294Z,46.37
2018-01-07T08:16:29.741Z,49.43
2018-01-07T08:34:50.587Z,47.97
2018-01-07T08:37:19.257Z,53.87
2018-01-07T08:39:46.708Z,50.90
2018-01-07T08:42:14.165Z,53.00
2018-01-07T08:44:41.630Z,46.50
2018-01-07T08:47:09.092Z,51.50
2018-01-07T08:49:36.552Z,41.20
2018-01-07T08:52:04.022Z,49.83
2018-01-07T08:54:31.470Z,49.47
2018-01-07T08:56:58.932Z,43.30
2018-01-07T08:59:26.401Z,54.13
2018-01-07T09:01:53.862Z,45.00
2018-01-07T09:04:21.332Z,54.37
2018-01-07T09:06:48.796Z,51.43
2018-01-07T09:09:16.257Z,40.40
2018-01-07T09:11:44.141Z,46.27
2018-01-07T09:14:11.595Z,43.63
2018-01-07T09:16:39.097Z,45.97
2018-01-07T09:19:06.581Z,44.47
2018-01-07T09:21:34.032Z,43.93
2018-01-07T09:24:01.700Z,47.97
2018-01-07T09:26:29.164Z,47.47
2018-01-07T09:28:56.670Z,43.60
2018-01-07T09:31:24.155Z,45.20
2018-01-07T09:33:51.731Z,49.30
2018-01-07T09:36:19.203Z,45.67
2018-01-07T09:38:46.744Z,45.30
2018-01-07T09:41:14.259Z,48.23
2018-01-07T09:43:41.745Z,52.20
2018-01-07T09:46:09.228Z,128.13
2018-01-07T09:48:36.687Z,47.20
2018-01-07T09:51:04.148Z,118.13
2018-01-07T09:53:31.610Z,52.37
2018-01-07T09:55:59.072Z,47.90
2018-01-07T09:58:26.563Z,49.20
2018-01-07T10:00:54.042Z,43.10
2018-01-07T10:03:21.505Z,43.83
2018-01-07T10:05:49.053Z,43.30
2018-01-07T10:08:16.506Z,48.90
2018-01-07T10:10:43.968Z,49.60
2018-01-07T10:13:11.419Z,57.93
2018-01-07T10:15:38.878Z,51.30
2018-01-07T10:18:06.346Z,47.27
2018-01-07T10:20:33.815Z,38.30
2018-01-07T10:23:01.276Z,42.03
2018-01-07T10:25:28.758Z,45.90
2018-01-07T10:27:56.247Z,43.63
2018-01-07T10:30:23.815Z,41.70
2018-01-07T10:32:51.264Z,38.40
2018-01-07T10:35:18.742Z,38.67
2018-01-07T10:37:46.209Z,40.63
2018-01-07T10:40:13.701Z,38.67
2018-01-07T10:42:41.176Z,42.13
2018-01-07T10:45:08.692Z,45.47
2018-01-07T10:47:36.155Z,43.30
2018-01-07T10:50:03.658Z,47.93
2018-01-07T10:52:31.176Z,43.30
2018-01-07T10:54:58.641Z,43.43
2018-01-07T10:57:26.100Z,42.97
2018-01-07T10:59:53.571Z,45.43
2018-01-07T11:02:26.471Z,37.90
2018-01-07T11:04:53.948Z,41.13
2018-01-07T11:07:21.427Z,38.60
2018-01-07T11:09:48.891Z,44.97
2018-01-07T11:12:16.352Z,45.20
2018-01-07T11:14:43.811Z,44.00
2018-01-07T11:17:11.323Z,42.10
2018-01-07T11:19:38.913Z,45.70
2018-01-07T11:22:07.881Z,43.30
2018-01-07T11:24:37.115Z,48.63
2018-01-07T11:27:04.590Z,45.90
2018-01-07T11:29:32.053Z,47.07
2018-01-07T11:31:59.547Z,41.07
2018-01-07T11:34:27.007Z,42.97
2018-01-07T11:36:54.559Z,42.03
2018-01-07T11:39:22.105Z,44.90
2018-01-07T11:41:49.540Z,48.07
2018-01-07T11:44:17.644Z,43.07
2018-01-07T11:46:45.122Z,47.90
2018-01-07T11:49:12.603Z,49.60
2018-01-07T11:51:40.061Z,46.70
2018-01-07T11:54:08.181Z,42.63
2018-01-07T11:56:35.809Z,47.50
2018-01-07T11:59:03.307Z,44.90
2018-01-07T12:01:30.792Z,43.10
2018-01-07T12:03:58.270Z,53.77
2018-01-07T12:06:25.733Z,43.87
2018-01-07T12:08:53.204Z,49.63
2018-01-07T12:11:20.760Z,41.87
2018-01-07T12:13:48.250Z,45.20
2018-01-07T12:16:16.431Z,42.80
2018-01-07T12:18:44.220Z,37.90
2018-01-07T12:21:12.068Z,43.10
2018-01-07T12:23:40.105Z,47.00
2018-01-07T12:26:07.556Z,48.43
2018-01-07T12:28:35.072Z,44.90
2018-01-07T12:31:02.564Z,43.57
2018-01-07T12:33:30.025Z,47.67
2018-01-07T12:35:57.507Z,48.37
2018-01-07T12:38:24.987Z,44.20
2018-01-07T12:40:52.487Z,50.33
2018-01-07T12:43:19.998Z,48.40
2018-01-07T12:45:47.648Z,52.50
2018-01-07T12:48:15.117Z,41.40
2018-01-07T12:50:42.611Z,49.40
2018-01-07T12:53:10.226Z,50.10
2018-01-07T12:55:37.696Z,47.13
2018-01-07T12:58:05.274Z,49.77
2018-01-07T13:00:32.763Z,55.97
2018-01-07T13:03:00.268Z,51.40
2018-01-07T13:05:27.841Z,50.53
2018-01-07T13:07:55.333Z,51.43
2018-01-07T13:10:22.851Z,51.07
2018-01-07T13:12:52.558Z,47.47
2018-01-07T13:15:21.025Z,47.40
2018-01-07T13:17:48.541Z,41.10
2018-01-07T13:20:16.035Z,42.87
2018-01-07T13:22:43.510Z,47.27
2018-01-07T13:25:10.992Z,48.93
2018-01-07T13:27:38.552Z,56.87
2018-01-07T13:30:06.085Z,50.00
2018-01-07T13:32:33.754Z,46.20
2018-01-07T13:35:01.368Z,47.23
2018-01-07T13:37:28.890Z,48.77
2018-01-07T13:39:56.438Z,51.30
2018-01-07T13:42:23.933Z,48.43
2018-01-07T13:44:51.476Z,53.47
2018-01-07T13:47:19.004Z,46.70
2018-01-07T13:49:46.522Z,52.93
2018-01-07T13:52:14.045Z,48.43
2018-01-07T13:54:41.538Z,63.40
2018-01-07T13:57:09.027Z,66.70
2018-01-07T13:59:36.505Z,60.00
2018-01-07T14:02:03.987Z,53.43
2018-01-07T14:04:31.505Z,50.00
2018-01-07T14:06:58.963Z,51.97
2018-01-07T14:09:26.492Z,61.93
2018-01-07T14:11:53.951Z,54.33
2018-01-07T14:14:21.441Z,52.33
2018-01-07T14:16:48.932Z,52.03
2018-01-07T14:19:16.388Z,54.50
2018-01-07T14:21:43.841Z,53.27
2018-01-07T14:24:11.389Z,49.30
2018-01-07T14:26:38.860Z,55.60
2018-01-07T14:29:06.340Z,103.47
2018-01-07T14:31:33.871Z,147.20
2018-01-07T14:34:01.329Z,93.83
2018-01-07T14:36:29.053Z,69.77
2018-01-07T14:38:56.516Z,74.60
2018-01-07T14:41:23.988Z,68.10
2018-01-07T14:43:51.440Z,63.30
2018-01-07T14:46:18.916Z,56.53
2018-01-07T14:48:46.499Z,61.30
2018-01-07T14:51:13.995Z,54.67
2018-01-07T14:53:41.468Z,56.53
2018-01-07T14:56:08.935Z,69.90
2018-01-07T14:58:36.418Z,64.53
2018-01-07T15:01:03.881Z,56.63
2018-01-07T15:03:31.367Z,62.00
2018-01-07T15:05:58.847Z,60.90
2018-01-07T15:08:27.391Z,65.97
2018-01-07T15:10:54.854Z,73.63
2018-01-07T15:13:22.327Z,65.53
2018-01-07T15:15:49.800Z,63.83
2018-01-07T15:18:17.276Z,62.33
2018-01-07T15:20:44.762Z,65.23
2018-01-07T15:23:12.219Z,60.97
2018-01-07T15:25:39.738Z,68.20
2018-01-07T15:28:07.245Z,66.80
2018-01-07T15:30:34.700Z,68.00
2018-01-07T15:33:02.205Z,65.17
2018-01-07T15:35:29.720Z,61.37
2018-01-07T15:37:57.182Z,62.00
2018-01-07T15:40:24.629Z,75.87
2018-01-07T15:42:52.196Z,70.70
2018-01-07T15:45:19.667Z,60.83
2018-01-07T15:47:47.249Z,64.53
2018-01-07T15:50:14.912Z,69.63
2018-01-07T15:52:42.369Z,63.33
2018-01-07T15:55:09.857Z,65.00
2018-01-07T15:57:37.348Z,61.33
2018-01-07T16:00:04.858Z,61.13
2018-01-07T16:02:32.444Z,60.60
2018-01-07T16:04:59.934Z,64.53
2018-01-07T16:07:27.408Z,60.27
2018-01-07T16:09:54.896Z,66.53
2018-01-07T16:12:22.386Z,66.07
2018-01-07T16:14:49.877Z,59.50
2018-01-07T16:17:17.340Z,69.03
2018-01-07T16:19:44.825Z,63.33
2018-01-07T16:22:12.344Z,67.30
2018-01-07T16:24:39.835Z,61.43
2018-01-07T16:29:41.038Z,59.20
2018-01-07T16:32:08.489Z,64.40
2018-01-07T16:34:35.976Z,64.73
2018-01-07T16:37:03.448Z,67.87
2018-01-07T16:52:29.348Z,73.70
2018-01-07T16:54:56.810Z,77.97
2018-01-07T16:57:24.280Z,74.03
2018-01-07T16:59:51.799Z,82.97
2018-01-07T17:02:19.266Z,75.43
2018-01-07T17:04:46.734Z,69.13
2018-01-07T17:07:14.324Z,64.53
2018-01-07T17:09:41.783Z,76.10
2018-01-07T17:12:09.232Z,70.03
2018-01-07T17:14:36.713Z,66.67
2018-01-07T17:17:04.271Z,54.80
2018-01-07T17:19:31.794Z,56.97
2018-01-07T17:21:59.290Z,56.63
2018-01-07T17:24:27.037Z,58.77
2018-01-07T17:26:54.561Z,55.60
2018-01-07T17:29:22.068Z,50.80
2018-01-07T17:31:49.597Z,58.07
2018-01-07T17:34:17.222Z,48.50
2018-01-07T17:36:44.736Z,51.37
2018-01-07T17:39:12.261Z,52.37
2018-01-07T17:41:39.720Z,51.50
2018-01-07T17:44:07.195Z,48.33
2018-01-07T17:46:34.794Z,52.10
2018-01-07T17:49:02.244Z,45.17
2018-01-07T17:51:29.744Z,50.17
2018-01-07T17:53:57.213Z,55.10
2018-01-07T17:56:24.675Z,55.00
2018-01-07T17:58:52.156Z,46.40
2018-01-07T18:01:19.632Z,53.43
2018-01-07T18:03:47.196Z,50.43
2018-01-07T18:06:14.687Z,47.50
2018-01-07T18:08:42.212Z,54.37
2018-01-07T18:11:09.714Z,48.27
2018-01-07T18:13:37.168Z,45.57
2018-01-07T18:16:04.741Z,45.33
2018-01-07T18:18:32.375Z,46.03
2018-01-07T18:20:59.846Z,45.07
2018-01-07T18:23:27.380Z,46.63
2018-01-07T18:25:54.863Z,49.10
2018-01-07T18:28:22.330Z,47.90
2018-01-07T18:30:49.812Z,47.13
2018-01-07T18:33:19.452Z,49.83
2018-01-07T18:35:47.015Z,44.00
2018-01-07T18:38:14.563Z,52.17
2018-01-07T18:40:42.624Z,44.80
2018-01-07T18:43:10.100Z,47.37
2018-01-07T18:45:37.855Z,45.80
2018-01-07T18:48:05.381Z,45.00
2018-01-07T18:50:33.093Z,46.47
2018-01-07T18:53:00.573Z,43.77
2018-01-07T18:55:28.112Z,44.67
2018-01-07T18:58:00.766Z,42.20
2018-01-07T19:00:28.912Z,38.47
2018-01-07T19:02:56.408Z,40.43
2018-01-07T19:05:23.928Z,38.67
2018-01-07T19:07:51.437Z,39.27
2018-01-07T19:10:18.916Z,46.00
2018-01-07T19:12:47.223Z,38.73
2018-01-07T19:15:14.760Z,46.00
2018-01-07T19:17:42.257Z,36.90
2018-01-07T19:20:09.830Z,43.37
2018-01-07T19:22:37.339Z,45.43
2018-01-07T19:25:04.832Z,41.10
2018-01-07T19:27:32.381Z,44.13
2018-01-07T19:29:59.851Z,47.03
2018-01-07T19:32:27.471Z,41.37
2018-01-07T19:34:55.043Z,54.93
2018-01-07T19:37:22.684Z,54.63
2018-01-07T19:39:50.422Z,45.07
2018-01-07T19:42:18.242Z,52.57
2018-01-07T19:44:46.031Z,44.00
2018-01-07T19:47:13.884Z,48.17
2018-01-07T19:49:41.684Z,48.40
2018-01-07T19:52:09.608Z,44.63
2018-01-07T19:54:38.378Z,48.20
2018-01-07T19:57:06.207Z,41.73
2018-01-07T19:59:34.003Z,45.33
2018-01-07T20:02:01.823Z,45.63
2018-01-07T20:04:29.718Z,43.20
2018-01-07T20:06:57.685Z,41.20
2018-01-07T20:09:25.470Z,41.57
2018-01-07T20:11:53.436Z,47.70
2018-01-07T20:14:21.198Z,45.63
2018-01-07T20:16:48.997Z,51.00
2018-01-07T20:19:16.863Z,50.00
2018-01-07T20:21:44.630Z,46.13
2018-01-07T20:24:12.739Z,49.30
2018-01-07T20:26:40.672Z,47.90
2018-01-07T20:29:08.549Z,46.97
2018-01-07T20:31:36.395Z,48.37
2018-01-07T20:34:04.436Z,45.60
2018-01-07T20:36:32.494Z,44.43
2018-01-07T20:39:00.368Z,47.90
2018-01-07T20:41:27.993Z,50.40
2018-01-07T20:43:55.481Z,50.33
2018-01-07T20:46:23.014Z,49.23
2018-01-07T20:48:50.560Z,48.67
2018-01-07T20:51:18.091Z,49.83
2018-01-07T20:53:45.711Z,45.33
2018-01-07T20:56:13.278Z,49.47
2018-01-07T20:58:41.060Z,48.27
2018-01-07T21:01:08.735Z,47.97
2018-01-07T21:03:36.447Z,42.70
2018-01-07T21:06:04.011Z,46.77
2018-01-07T21:08:32.584Z,47.20
2018-01-07T21:11:00.122Z,48.20
2018-01-07T21:13:27.633Z,47.10
2018-01-07T21:15:55.137Z,48.70
2018-01-07T21:18:22.697Z,48.67
2018-01-07T21:20:50.212Z,48.10
2018-01-07T21:23:17.696Z,56.30
2018-01-07T21:25:45.408Z,48.50
2018-01-07T21:28:12.879Z,48.93
2018-01-07T21:30:40.401Z,53.77
2018-01-07T21:33:07.889Z,50.10
2018-01-07T21:35:35.355Z,53.63
2018-01-07T21:38:02.825Z,46.57
2018-01-07T21:40:36.984Z,55.30
2018-01-07T21:43:04.496Z,54.70
2018-01-07T21:45:31.953Z,57.43
2018-01-07T21:47:59.533Z,54.80
2018-01-07T21:50:27.098Z,52.23
2018-01-07T21:52:54.542Z,53.60
2018-01-07T21:55:22.012Z,62.93
2018-01-07T21:57:49.700Z,54.97
2018-01-07T22:00:39.739Z,55.07
2018-01-07T22:03:19.249Z,53.30
2018-01-07T22:05:54.622Z,52.83
2018-01-07T22:08:22.161Z,55.17
2018-01-07T22:10:49.620Z,54.07
2018-01-07T22:13:17.100Z,61.20
2018-01-07T22:15:44.700Z,55.07
2018-01-07T22:18:12.153Z,59.70
2018-01-07T22:20:39.634Z,65.27
2018-01-07T22:23:07.450Z,56.50
2018-01-07T22:25:34.969Z,61.13
2018-01-07T22:28:02.445Z,65.43
2018-01-07T22:30:29.978Z,63.33
2018-01-07T22:32:58.488Z,64.33
2018-01-07T22:35:26.590Z,64.17
2018-01-07T22:37:54.127Z,65.30
2018-01-07T22:40:22.770Z,64.37
2018-01-07T22:42:50.398Z,65.53
2018-01-07T22:45:18.370Z,65.63
2018-01-07T22:47:51.365Z,65.80
2018-01-07T22:50:19.104Z,65.63
2018-01-07T22:52:46.605Z,69.67
2018-01-07T22:55:14.084Z,72.23
2018-01-07T22:57:41.559Z,68.80
2018-01-07T23:00:10.218Z,68.23
2018-01-07T23:02:41.223Z,69.87
2018-01-07T23:05:09.466Z,76.83
2018-01-07T23:07:37.028Z,74.20
2018-01-07T23:10:06.246Z,76.63
2018-01-07T23:12:33.930Z,73.70
2018-01-07T23:15:04.849Z,73.73
2018-01-07T23:17:32.864Z,70.13
2018-01-07T23:20:01.333Z,85.47
2018-01-07T23:22:31.189Z,75.73
2018-01-07T23:24:58.676Z,78.97
2018-01-07T23:27:26.177Z,79.57
2018-01-07T23:29:53.675Z,86.37
2018-01-07T23:32:21.134Z,81.27
2018-01-07T23:34:48.592Z,81.20
2018-01-07T23:37:16.095Z,80.37
2018-01-07T23:39:43.575Z,78.37
2018-01-07T23:42:11.031Z,79.23
2018-01-07T23:44:38.519Z,83.27
2018-01-07T23:47:06.073Z,79.60
2018-01-07T23:49:33.572Z,81.27
2018-01-07T23:52:01.043Z,85.33
2018-01-07T23:54:28.782Z,76.27
2018-01-07T23:56:56.370Z,75.40
2018-01-07T23:59:23.851Z,82.53
